This is the latest recevied weather packets stored in our database for station/object 5B4APJ-13. If no packets are shown the sender has not sent any weather packets the latest 10 day(s).
| Time | Temp. | Humidity | Pressure | Rain* | Wind** | Luminosity | Snow |
|---|---|---|---|---|---|---|---|
| 1777573026 | 16.11° C | 75% | 1013.8 hPa | 0 mm | 0 m/s | 0 W/m² | - |
| 1777572726 | 16.11° C | 75% | 1013.8 hPa | 0 mm | 0.45 m/s, 342° | 0 W/m² | - |
| 1777572426 | 16.11° C | 73% | 1013.7 hPa | 0 mm | 0 m/s | 0 W/m² | - |
| 1777572126 | 16.11° C | 72% | 1013.6 hPa | 0 mm | 0 m/s | 0 W/m² | - |
| 1777571826 | 16.67° C | 71% | 1013.5 hPa | 0 mm | 0 m/s | 0 W/m² | - |
| 1777571527 | 16.67° C | 69% | 1013.5 hPa | 0 mm | 0 m/s | 0 W/m² | - |
| 1777571226 | 16.67° C | 70% | 1013.3 hPa | 0 mm | 0 m/s | 0 W/m² | - |
| 1777570926 | 17.22° C | 69% | 1013.4 hPa | 0 mm | 0.45 m/s, 138° | 0 W/m² | - |
| 1777570626 | 17.22° C | 67% | 1013.3 hPa | 0 mm | 0 m/s | 0 W/m² | - |
| 1777570326 | 17.22° C | 67% | 1013.5 hPa | 0 mm | 0.45 m/s, 135° | 0 W/m² | - |
| 1777570027 | 17.22° C | 65% | 1013.4 hPa | 0 mm | 0.45 m/s, 135° | 0 W/m² | - |
| 1777569726 | 17.78° C | 64% | 1013.4 hPa | 0 mm | 0.45 m/s, 227° | 0 W/m² | - |
| 1777569427 | 17.22° C | 64% | 1013.4 hPa | 0 mm | 0.45 m/s, 227° | 0 W/m² | - |
| 1777569127 | 17.78° C | 62% | 1013.3 hPa | 0 mm | 0 m/s | 0 W/m² | - |
| 1777568826 | 17.78° C | 62% | 1013.3 hPa | 0 mm | 0.45 m/s, 240° | 0 W/m² | - |
| 1777568526 | 18.33° C | 62% | 1013.2 hPa | 0 mm | 0.89 m/s, 262° | 0 W/m² | - |
| 1777568226 | 18.89° C | 59% | 1013.3 hPa | 0 mm | 0.45 m/s, 260° | 0 W/m² | - |
| 1777567927 | 19.44° C | 58% | 1013 hPa | 0 mm | 0.45 m/s, 264° | 0 W/m² | - |
| 1777567627 | 19.44° C | 59% | 1013.1 hPa | 0 mm | 0.45 m/s, 271° | 0 W/m² | - |
| 1777567326 | 19.44° C | 59% | 1013.3 hPa | 0 mm | 0.89 m/s, 256° | 1 W/m² | - |
| 1777567027 | 20° C | 57% | 1013 hPa | 0 mm | 0 m/s | 1 W/m² | - |
| 1777566727 | 20° C | 56% | 1012.9 hPa | 0 mm | 0.45 m/s, 276° | 3 W/m² | - |
| 1777566426 | 20.56° C | 55% | 1013.2 hPa | 0 mm | 0.89 m/s, 276° | 5 W/m² | - |
| 1777566126 | 20.56° C | 54% | 1013.2 hPa | 0 mm | 2.68 m/s, 316° | 8 W/m² | - |
| 1777565827 | 20.56° C | 54% | 1012.9 hPa | 0 mm | 1.34 m/s, 292° | 11 W/m² | - |
* Rain latest hour (hover to see other rain measurements)
** Current wind speed in m/s (hover to see current wind gust speed)